Pagina principale
METAR-TAF:

METAR-TAF

Aeroporti :

Chugiak, Alaska, Stati Uniti

latitudine: 61-25N, longitudine: 149-31W, altezza: 29 m

Osservazione

Il bollettino è stato emesso 23 minuti fa, alle 14:56 UTC
Vento calmo
Temperature 12°C
Umidità 82%
Pressione 1025 hPa
Visibilità: 16.1 km
Poco nuvoloso ad un'altezza di 9500 ft

METAR: PABV 191456Z AUTO 00000KT 10SM FEW095 12/09 A3027 RMK AO2 SLP258 6//// T01170089 53006 PNO $

Ora: 07:19 (15:19 UTC)


TAF: mancante

Osservazioni e previsioni meteorologiche di più di 4000 aeroporti (messaggi METAR e TAF).

Le stazioni disponibili sono rappresentate dai dischi gialli e rossi sulla carta.

Puntare il mouse per vedere il nome della stazione.

Clicca sopra per visualizzare le osservazioni e previsioni meteorologiche.

Per cambiare la mappa : fare clic sui pulsanti verdi con una croce nera per ingrandire, il pulsante verde con un trattino per diminuire, o sulla freccia verde per le mappe adiacenti.


METAR-TAF: